»·PEaware :: AAL230 KBUR-KLAS

AAL230 :: KBUR-KLAS

FLIGHT INFORMATION

Flight Status: Arrived
Operator:
American Airlines
More flights by this operator :: More flights under this callsign
Pilot: Anonymous 13704 (13704)
Aircraft: BOEING 737-800
(B738)
More flights by this aircraft type
Origin: KBUR Bob Hope-Burbank
United States
Destination: KLAS McCarran Intl
United States
More flights between these airports :: More routes between these airports
Route: +SLAPP1 MISEN KEPEC6
File this flight plan on PilotEdge
Remarks: I-5 Rating
Altitude:
(Current/Filed)
27,000ft
Speed:
(Current/Filed)
280kts
Departed: 22-Mar-20 05:38 PM
Arrived: 22-Mar-20 06:23 PM
Distance/Time
Traveled:
194nm/0:45
Distance/Time
To Go:
Arrived

Flight Plot

Page will automatically refresh every two minutes.

Flight plan parsing failed; only flown route is shown


Map Options




Map Legend


Flown Route
Filed Route
Departure Airport
Arrival Airport
Navaid (VOR, NDB)
Fix

Horizontal Profiles

Position Reports

Time Latitude Longitude Heading Altitude Ground
Speed
22-Mar-20 17:12 34.196828 -118.351053 180 788ft 0kts
22-Mar-20 17:13 34.196828 -118.351053 180 788ft 0kts
22-Mar-20 17:14 34.196828 -118.351053 180 788ft 0kts
22-Mar-20 17:15 34.196828 -118.351053 180 788ft 0kts
22-Mar-20 17:16 34.196828 -118.351053 180 788ft 0kts
22-Mar-20 17:17 34.196828 -118.351053 180 788ft 0kts
22-Mar-20 17:18 34.196828 -118.351053 180 788ft 0kts
22-Mar-20 17:19 34.196828 -118.351053 180 788ft 0kts
22-Mar-20 17:20 34.196828 -118.351053 180 788ft 0kts
22-Mar-20 17:21 34.196828 -118.351053 180 788ft 0kts
22-Mar-20 17:22 34.196829 -118.351053 180 788ft 0kts
22-Mar-20 17:23 34.196829 -118.351053 180 788ft 0kts
22-Mar-20 17:24 34.196849 -118.351055 180 788ft 1kts
22-Mar-20 17:25 34.197167 -118.350545 274 788ft 2kts
22-Mar-20 17:26 34.197164 -118.350393 268 788ft 0kts
22-Mar-20 17:27 34.197164 -118.350393 268 788ft 0kts
22-Mar-20 17:28 34.197164 -118.350393 268 788ft 0kts
22-Mar-20 17:29 34.197164 -118.350393 268 788ft 0kts
22-Mar-20 17:30 34.197164 -118.350393 268 788ft 0kts
22-Mar-20 17:31 34.197164 -118.350393 268 788ft 0kts
22-Mar-20 17:32 34.197163 -118.351551 271 787ft 13kts
22-Mar-20 17:33 34.199819 -118.355642 347 788ft 18kts
22-Mar-20 17:34 34.205763 -118.357274 347 787ft 23kts
22-Mar-20 17:35 34.211409 -118.358909 325 788ft 0kts
22-Mar-20 17:36 34.211409 -118.358909 325 788ft 0kts
22-Mar-20 17:37 34.206897 -118.358965 167 788ft 92kts
22-Mar-20 17:38 34.168390 -118.369222 221 2205ft 182kts
22-Mar-20 17:39 34.146369 -118.426254 306 4163ft 226kts
22-Mar-20 17:40 34.213797 -118.448022 352 6421ft 275kts
22-Mar-20 17:41 34.289974 -118.441774 37 9014ft 298kts
22-Mar-20 17:42 34.361889 -118.380521 32 10838ft 350kts
22-Mar-20 17:43 34.453958 -118.328304 25 13151ft 379kts
22-Mar-20 17:44 34.543053 -118.255187 36 15739ft 399kts
22-Mar-20 17:45 34.632662 -118.169634 42 18076ft 419kts
22-Mar-20 17:46 34.678920 -118.038327 80 19482ft 438kts
22-Mar-20 17:47 34.695636 -117.888233 90 21266ft 458kts
22-Mar-20 17:48 34.705674 -117.730622 92 22898ft 478kts
22-Mar-20 17:49 34.714442 -117.565351 86 24437ft 504kts
22-Mar-20 17:50 34.745474 -117.395662 76 25890ft 528kts
22-Mar-20 17:51 34.790628 -117.222527 75 27053ft 540kts
22-Mar-20 17:52 34.836791 -117.047322 75 27053ft 553kts
22-Mar-20 17:53 34.883159 -116.870791 75 27048ft 541kts
22-Mar-20 17:54 34.940032 -116.704805 61 27062ft 537kts
22-Mar-20 17:55 35.019687 -116.552237 54 26660ft 526kts
22-Mar-20 17:56 35.104050 -116.408814 48 24176ft 511kts
22-Mar-20 17:57 35.195561 -116.287965 43 23802ft 502kts
22-Mar-20 17:58 35.291055 -116.167753 44 21456ft 470kts
22-Mar-20 17:59 35.377740 -116.058545 44 18927ft 427kts
22-Mar-20 18:00 35.456165 -115.959318 44 16702ft 386kts
22-Mar-20 18:01 35.528868 -115.867163 45 15024ft 367kts
22-Mar-20 18:02 35.598134 -115.779144 45 13522ft 350kts
22-Mar-20 18:03 35.662858 -115.696658 45 12999ft 321kts
22-Mar-20 18:04 35.725437 -115.616944 40 12996ft 324kts
22-Mar-20 18:05 35.806492 -115.573508 2 12999ft 319kts
22-Mar-20 18:06 35.894998 -115.567805 359 12995ft 318kts
22-Mar-20 18:07 35.976151 -115.530040 51 12073ft 324kts
22-Mar-20 18:08 36.013146 -115.432424 70 10991ft 304kts
22-Mar-20 18:09 36.028455 -115.338641 96 10149ft 269kts
22-Mar-20 18:10 36.022025 -115.249536 98 8984ft 250kts
22-Mar-20 18:11 36.015879 -115.162764 97 8566ft 242kts
22-Mar-20 18:12 36.010982 -115.081412 96 7999ft 233kts
22-Mar-20 18:13 36.007070 -115.000584 100 7992ft 235kts
22-Mar-20 18:14 35.955809 -114.984704 200 7995ft 228kts
22-Mar-20 18:15 35.918733 -115.034982 260 7997ft 204kts
22-Mar-20 18:16 35.913141 -115.105168 261 7994ft 205kts
22-Mar-20 18:17 35.916617 -115.174247 308 7628ft 215kts
22-Mar-20 18:18 35.966333 -115.210613 342 5603ft 198kts
22-Mar-20 18:19 36.013780 -115.207642 26 3944ft 159kts
22-Mar-20 18:20 36.052564 -115.184181 29 2843ft 152kts
22-Mar-20 18:21 36.087590 -115.163358 25 2192ft 64kts
22-Mar-20 18:22 36.088592 -115.161375 114 2191ft 0kts
22-Mar-20 18:23 36.087269 -115.158261 147 2192ft 23kts
22-Mar-20 18:24 36.081023 -115.154630 154 2192ft 23kts
22-Mar-20 18:25 36.078686 -115.149487 93 2191ft 19kts
22-Mar-20 18:26 36.078276 -115.141149 90 2192ft 25kts
22-Mar-20 18:27 36.079945 -115.135685 24 2192ft 0kts
22-Mar-20 18:28 36.079945 -115.135685 24 2192ft 0kts
22-Mar-20 18:29 36.079945 -115.135685 24 2192ft 0kts
22-Mar-20 18:30 36.079945 -115.135685 24 2192ft 0kts
22-Mar-20 18:31 36.079945 -115.135685 24 2192ft 0kts
22-Mar-20 18:32 36.079945 -115.135685 24 2192ft 0kts
22-Mar-20 18:33 36.079945 -115.135685 24 2192ft 0kts
22-Mar-20 18:34 36.079945 -115.135685 24 2192ft 0kts
22-Mar-20 18:35 36.079945 -115.135685 24 2192ft 0kts
22-Mar-20 18:36 36.079945 -115.135685 24 2192ft 0kts
22-Mar-20 18:37 36.079945 -115.135685 24 2192ft 0kts

Navigation Log

Ident Type
Flight plan parsing failed, navigation log unavailable